Preview of NWS' New Version of Forecast
This preview is not operational and should not be used for support decisions.

Terminal Aerodrome Forecast (TAF)

Issued by National Weather Service (NWS)

                            
000
FTUS46 KSEW 171140
TAFBLI
TAF
KBLI 171140Z 1712/1812 18006KT P6SM BKN035 OVC060
     FM171900 18008KT P6SM SCT030 BKN060=